sensor_id;sensor_type;location;lat;lon;timestamp;P1;durP1;ratioP1;P2;durP2;ratioP2
62457;SDS011;48509;52.122;5.250;2024-03-23T00:54:42;46.6;;;18.5;;
62457;SDS011;48509;52.122;5.250;2024-03-23T00:56:19;42.2;;;16.5;;
62457;SDS011;48509;52.122;5.250;2024-03-23T00:59:31;51.2;;;18.3;;
62457;SDS011;48509;52.122;5.250;2024-03-23T01:01:07;49.2;;;19.11;;
62457;SDS011;48509;52.122;5.250;2024-03-23T01:02:43;39.9;;;18.0;;
62457;SDS011;48509;52.122;5.250;2024-03-23T01:05:58;43.8;;;19.11;;
62457;SDS011;48509;52.122;5.250;2024-03-23T01:07:35;40.1;;;18.2;;
62457;SDS011;48509;52.122;5.250;2024-03-23T01:09:11;45.8;;;19.0;;
62457;SDS011;48509;52.122;5.250;2024-03-23T01:10:53;34.6;;;15.9;;
62457;SDS011;48509;52.122;5.250;2024-03-23T01:14:06;37.9;;;17.3;;
62457;SDS011;48509;52.122;5.250;2024-03-23T01:15:47;51.1;;;19.0;;
62457;SDS011;48509;52.122;5.250;2024-03-23T01:17:24;51.8;;;20.11;;
62457;SDS011;48509;52.122;5.250;2024-03-23T01:20:36;56.1;;;20.2;;
62457;SDS011;48509;52.122;5.250;2024-03-23T01:22:12;38.5;;;16.7;;
62457;SDS011;48509;52.122;5.250;2024-03-23T01:23:48;44.3;;;17.91;;
62457;SDS011;48509;52.122;5.250;2024-03-23T01:25:24;54.9;;;21.4;;
62457;SDS011;48509;52.122;5.250;2024-03-23T01:28:37;44.0;;;16.9;;
62457;SDS011;48509;52.122;5.250;2024-03-23T01:30:13;44.4;;;18.8;;
62457;SDS011;48509;52.122;5.250;2024-03-23T01:31:49;44.5;;;19.8;;
62457;SDS011;48509;52.122;5.250;2024-03-23T01:35:01;43.2;;;19.0;;
62457;SDS011;48509;52.122;5.250;2024-03-23T01:36:37;50.0;;;21.1;;
62457;SDS011;48509;52.122;5.250;2024-03-23T01:38:13;40.1;;;18.11;;
62457;SDS011;48509;52.122;5.250;2024-03-23T01:41:25;46.0;;;18.7;;
62457;SDS011;48509;52.122;5.250;2024-03-23T01:43:03;40.31;;;16.4;;
62457;SDS011;48509;52.122;5.250;2024-03-23T01:44:41;49.7;;;19.0;;
62457;SDS011;48509;52.122;5.250;2024-03-23T01:46:17;41.3;;;17.0;;
62457;SDS011;48509;52.122;5.250;2024-03-23T01:49:29;42.4;;;18.11;;
62457;SDS011;48509;52.122;5.250;2024-03-23T01:51:05;35.6;;;16.7;;
62457;SDS011;48509;52.122;5.250;2024-03-23T01:52:42;31.6;;;15.0;;
62457;SDS011;48509;52.122;5.250;2024-03-23T01:55:54;44.8;;;19.8;;
62457;SDS011;48509;52.122;5.250;2024-03-23T01:57:31;40.81;;;16.3;;
62457;SDS011;48509;52.122;5.250;2024-03-23T01:59:07;36.81;;;16.3;;
62457;SDS011;48509;52.122;5.250;2024-03-23T02:02:20;34.21;;;15.1;;
62457;SDS011;48509;52.122;5.250;2024-03-23T02:03:56;38.1;;;13.7;;
62457;SDS011;48509;52.122;5.250;2024-03-23T02:05:33;37.21;;;16.3;;
62457;SDS011;48509;52.122;5.250;2024-03-23T02:08:45;38.81;;;15.6;;
62457;SDS011;48509;52.122;5.250;2024-03-23T02:10:21;37.9;;;14.7;;
62457;SDS011;48509;52.122;5.250;2024-03-23T02:11:57;32.3;;;14.8;;
62457;SDS011;48509;52.122;5.250;2024-03-23T02:13:33;33.0;;;14.6;;
62457;SDS011;48509;52.122;5.250;2024-03-23T02:16:46;37.31;;;16.3;;
62457;SDS011;48509;52.122;5.250;2024-03-23T02:18:22;37.1;;;13.6;;
62457;SDS011;48509;52.122;5.250;2024-03-23T02:19:58;31.3;;;12.9;;
62457;SDS011;48509;52.122;5.250;2024-03-23T02:23:13;28.9;;;12.2;;
62457;SDS011;48509;52.122;5.250;2024-03-23T02:24:49;36.5;;;12.3;;
62457;SDS011;48509;52.122;5.250;2024-03-23T02:26:25;24.1;;;11.4;;
62457;SDS011;48509;52.122;5.250;2024-03-23T02:29:37;28.8;;;12.2;;
62457;SDS011;48509;52.122;5.250;2024-03-23T02:31:13;24.7;;;10.9;;
62457;SDS011;48509;52.122;5.250;2024-03-23T02:32:49;25.4;;;12.1;;
62457;SDS011;48509;52.122;5.250;2024-03-23T02:34:26;27.0;;;12.4;;
62457;SDS011;48509;52.122;5.250;2024-03-23T02:37:38;27.1;;;12.2;;
62457;SDS011;48509;52.122;5.250;2024-03-23T02:39:14;36.9;;;10.6;;
62457;SDS011;48509;52.122;5.250;2024-03-23T02:40:50;34.0;;;11.4;;
62457;SDS011;48509;52.122;5.250;2024-03-23T02:44:02;34.0;;;12.5;;
62457;SDS011;48509;52.122;5.250;2024-03-23T02:45:38;40.1;;;12.3;;
62457;SDS011;48509;52.122;5.250;2024-03-23T02:47:14;29.8;;;11.3;;
62457;SDS011;48509;52.122;5.250;2024-03-23T02:50:26;37.6;;;13.4;;
62457;SDS011;48509;52.122;5.250;2024-03-23T02:52:03;32.71;;;11.9;;
62457;SDS011;48509;52.122;5.250;2024-03-23T02:53:39;24.4;;;11.1;;
62457;SDS011;48509;52.122;5.250;2024-03-23T02:56:51;39.81;;;11.5;;
62457;SDS011;48509;52.122;5.250;2024-03-23T02:58:27;32.21;;;12.3;;
62457;SDS011;48509;52.122;5.250;2024-03-23T03:00:04;27.9;;;12.4;;
62457;SDS011;48509;52.122;5.250;2024-03-23T03:01:40;35.81;;;14.1;;
62457;SDS011;48509;52.122;5.250;2024-03-23T03:04:52;34.21;;;12.0;;
62457;SDS011;48509;52.122;5.250;2024-03-23T03:06:30;31.6;;;11.1;;
62457;SDS011;48509;52.122;5.250;2024-03-23T03:08:07;27.0;;;11.4;;
62457;SDS011;48509;52.122;5.250;2024-03-23T03:11:19;31.3;;;13.0;;
62457;SDS011;48509;52.122;5.250;2024-03-23T03:12:55;31.3;;;13.0;;
62457;SDS011;48509;52.122;5.250;2024-03-23T03:14:31;26.0;;;11.0;;
62457;SDS011;48509;52.122;5.250;2024-03-23T03:17:44;26.8;;;11.0;;
62457;SDS011;48509;52.122;5.250;2024-03-23T03:19:20;29.6;;;11.9;;
62457;SDS011;48509;52.122;5.250;2024-03-23T03:20:56;29.3;;;12.1;;
62457;SDS011;48509;52.122;5.250;2024-03-23T03:22:32;39.21;;;14.4;;
62457;SDS011;48509;52.122;5.250;2024-03-23T03:25:45;20.11;;;9.71;;
62457;SDS011;48509;52.122;5.250;2024-03-23T03:27:21;24.5;;;9.9;;
62457;SDS011;48509;52.122;5.250;2024-03-23T03:28:57;30.7;;;12.2;;
62457;SDS011;48509;52.122;5.250;2024-03-23T03:32:09;27.8;;;9.5;;
62457;SDS011;48509;52.122;5.250;2024-03-23T03:33:45;26.7;;;10.8;;
62457;SDS011;48509;52.122;5.250;2024-03-23T03:35:21;28.8;;;10.7;;
62457;SDS011;48509;52.122;5.250;2024-03-23T03:38:33;21.2;;;9.31;;
62457;SDS011;48509;52.122;5.250;2024-03-23T03:40:10;25.0;;;10.1;;
62457;SDS011;48509;52.122;5.250;2024-03-23T03:41:48;21.8;;;9.71;;
62457;SDS011;48509;52.122;5.250;2024-03-23T03:45:00;24.7;;;10.21;;
62457;SDS011;48509;52.122;5.250;2024-03-23T03:46:36;29.1;;;9.71;;
62457;SDS011;48509;52.122;5.250;2024-03-23T03:48:12;21.0;;;8.6;;
62457;SDS011;48509;52.122;5.250;2024-03-23T03:49:48;22.6;;;9.5;;
62457;SDS011;48509;52.122;5.250;2024-03-23T03:53:00;26.1;;;11.1;;
62457;SDS011;48509;52.122;5.250;2024-03-23T03:54:36;26.1;;;11.1;;
62457;SDS011;48509;52.122;5.250;2024-03-23T03:56:13;28.2;;;10.8;;
62457;SDS011;48509;52.122;5.250;2024-03-23T03:59:25;24.8;;;10.6;;
62457;SDS011;48509;52.122;5.250;2024-03-23T04:01:02;24.1;;;11.5;;
62457;SDS011;48509;52.122;5.250;2024-03-23T04:02:38;28.0;;;10.6;;
62457;SDS011;48509;52.122;5.250;2024-03-23T04:05:51;21.8;;;9.81;;
62457;SDS011;48509;52.122;5.250;2024-03-23T04:07:27;19.91;;;9.31;;
62457;SDS011;48509;52.122;5.250;2024-03-23T04:09:03;23.2;;;10.6;;
62457;SDS011;48509;52.122;5.250;2024-03-23T04:10:39;23.8;;;10.1;;
62457;SDS011;48509;52.122;5.250;2024-03-23T04:13:52;22.3;;;9.71;;
62457;SDS011;48509;52.122;5.250;2024-03-23T04:15:28;21.0;;;8.81;;
62457;SDS011;48509;52.122;5.250;2024-03-23T04:17:04;18.8;;;7.8;;
62457;SDS011;48509;52.122;5.250;2024-03-23T04:20:16;19.2;;;8.6;;
62457;SDS011;48509;52.122;5.250;2024-03-23T04:21:52;22.2;;;8.9;;
62457;SDS011;48509;52.122;5.250;2024-03-23T04:23:28;21.4;;;9.4;;
62457;SDS011;48509;52.122;5.250;2024-03-23T04:26:41;19.11;;;8.6;;
62457;SDS011;48509;52.122;5.250;2024-03-23T04:28:18;24.8;;;8.9;;
62457;SDS011;48509;52.122;5.250;2024-03-23T04:29:55;21.7;;;9.6;;
62457;SDS011;48509;52.122;5.250;2024-03-23T04:33:07;22.9;;;8.2;;
62457;SDS011;48509;52.122;5.250;2024-03-23T04:34:43;22.7;;;9.4;;
62457;SDS011;48509;52.122;5.250;2024-03-23T04:36:20;19.11;;;8.6;;
62457;SDS011;48509;52.122;5.250;2024-03-23T04:37:56;20.5;;;8.1;;
62457;SDS011;48509;52.122;5.250;2024-03-23T04:41:08;21.4;;;8.6;;
62457;SDS011;48509;52.122;5.250;2024-03-23T04:42:44;20.3;;;8.1;;
62457;SDS011;48509;52.122;5.250;2024-03-23T04:44:20;18.3;;;8.31;;
62457;SDS011;48509;52.122;5.250;2024-03-23T04:47:33;20.11;;;8.81;;
62457;SDS011;48509;52.122;5.250;2024-03-23T04:49:09;29.7;;;10.21;;
62457;SDS011;48509;52.122;5.250;2024-03-23T04:50:45;34.6;;;11.5;;
62457;SDS011;48509;52.122;5.250;2024-03-23T04:53:57;24.7;;;8.71;;
62457;SDS011;48509;52.122;5.250;2024-03-23T04:55:33;19.0;;;7.3;;
62457;SDS011;48509;52.122;5.250;2024-03-23T04:57:09;21.3;;;8.31;;
62457;SDS011;48509;52.122;5.250;2024-03-23T04:58:45;17.5;;;7.0;;
62457;SDS011;48509;52.122;5.250;2024-03-23T05:01:56;17.7;;;7.1;;
62457;SDS011;48509;52.122;5.250;2024-03-23T05:03:33;18.0;;;7.8;;
62457;SDS011;48509;52.122;5.250;2024-03-23T05:05:09;23.7;;;7.9;;
62457;SDS011;48509;52.122;5.250;2024-03-23T05:08:21;18.0;;;7.0;;
62457;SDS011;48509;52.122;5.250;2024-03-23T05:09:57;20.11;;;7.3;;
62457;SDS011;48509;52.122;5.250;2024-03-23T05:11:33;25.1;;;7.5;;
62457;SDS011;48509;52.122;5.250;2024-03-23T05:14:45;25.7;;;7.7;;
62457;SDS011;48509;52.122;5.250;2024-03-23T05:16:21;19.41;;;7.6;;
62457;SDS011;48509;52.122;5.250;2024-03-23T05:17:57;19.7;;;8.31;;
62457;SDS011;48509;52.122;5.250;2024-03-23T05:21:10;18.11;;;7.0;;
62457;SDS011;48509;52.122;5.250;2024-03-23T05:22:46;25.5;;;7.9;;
62457;SDS011;48509;52.122;5.250;2024-03-23T05:24:22;20.0;;;7.3;;
62457;SDS011;48509;52.122;5.250;2024-03-23T05:25:58;17.61;;;6.7;;
62457;SDS011;48509;52.122;5.250;2024-03-23T05:29:10;21.8;;;6.5;;
62457;SDS011;48509;52.122;5.250;2024-03-23T05:30:49;16.9;;;5.4;;
62457;SDS011;48509;52.122;5.250;2024-03-23T05:32:26;14.8;;;5.4;;
62457;SDS011;48509;52.122;5.250;2024-03-23T05:35:38;23.8;;;6.3;;
62457;SDS011;48509;52.122;5.250;2024-03-23T05:37:14;21.6;;;5.4;;
62457;SDS011;48509;52.122;5.250;2024-03-23T05:38:51;20.0;;;5.5;;
62457;SDS011;48509;52.122;5.250;2024-03-23T05:42:03;13.6;;;4.7;;
62457;SDS011;48509;52.122;5.250;2024-03-23T05:43:39;20.41;;;6.1;;
62457;SDS011;48509;52.122;5.250;2024-03-23T05:45:15;17.8;;;5.3;;
62457;SDS011;48509;52.122;5.250;2024-03-23T05:46:51;21.9;;;4.7;;
62457;SDS011;48509;52.122;5.250;2024-03-23T05:50:05;20.0;;;4.2;;
62457;SDS011;48509;52.122;5.250;2024-03-23T05:51:40;21.2;;;4.41;;
62457;SDS011;48509;52.122;5.250;2024-03-23T05:53:17;16.61;;;4.7;;
62457;SDS011;48509;52.122;5.250;2024-03-23T05:56:30;23.1;;;4.41;;
62457;SDS011;48509;52.122;5.250;2024-03-23T05:58:06;14.4;;;4.1;;
62457;SDS011;48509;52.122;5.250;2024-03-23T05:59:42;23.1;;;4.3;;
62457;SDS011;48509;52.122;5.250;2024-03-23T06:02:54;17.2;;;4.5;;
62457;SDS011;48509;52.122;5.250;2024-03-23T06:04:30;24.3;;;4.7;;
62457;SDS011;48509;52.122;5.250;2024-03-23T06:06:06;18.5;;;4.8;;
62457;SDS011;48509;52.122;5.250;2024-03-23T06:09:18;20.5;;;4.61;;
62457;SDS011;48509;52.122;5.250;2024-03-23T06:10:54;20.7;;;4.2;;
62457;SDS011;48509;52.122;5.250;2024-03-23T06:12:31;20.2;;;4.41;;
62457;SDS011;48509;52.122;5.250;2024-03-23T06:14:07;22.3;;;4.2;;
62457;SDS011;48509;52.122;5.250;2024-03-23T06:17:19;21.9;;;3.6;;
62457;SDS011;48509;52.122;5.250;2024-03-23T06:18:55;17.3;;;3.6;;
62457;SDS011;48509;52.122;5.250;2024-03-23T06:20:31;18.61;;;4.1;;
62457;SDS011;48509;52.122;5.250;2024-03-23T06:23:44;14.8;;;3.1;;
62457;SDS011;48509;52.122;5.250;2024-03-23T06:25:20;13.8;;;3.6;;
62457;SDS011;48509;52.122;5.250;2024-03-23T06:26:57;16.0;;;4.0;;
62457;SDS011;48509;52.122;5.250;2024-03-23T06:30:09;18.8;;;4.0;;
62457;SDS011;48509;52.122;5.250;2024-03-23T06:31:51;23.3;;;4.41;;
62457;SDS011;48509;52.122;5.250;2024-03-23T06:33:29;20.41;;;4.1;;
62457;SDS011;48509;52.122;5.250;2024-03-23T06:35:05;19.8;;;4.5;;
62457;SDS011;48509;52.122;5.250;2024-03-23T06:38:18;14.9;;;3.8;;
62457;SDS011;48509;52.122;5.250;2024-03-23T06:39:54;19.61;;;4.3;;
62457;SDS011;48509;52.122;5.250;2024-03-23T06:41:30;16.61;;;4.0;;
62457;SDS011;48509;52.122;5.250;2024-03-23T06:44:43;15.3;;;4.0;;
62457;SDS011;48509;52.122;5.250;2024-03-23T06:46:19;19.8;;;4.3;;
62457;SDS011;48509;52.122;5.250;2024-03-23T06:47:55;19.11;;;4.2;;
62457;SDS011;48509;52.122;5.250;2024-03-23T06:51:07;21.2;;;4.2;;
62457;SDS011;48509;52.122;5.250;2024-03-23T06:52:43;18.11;;;4.1;;
62457;SDS011;48509;52.122;5.250;2024-03-23T06:55:55;19.11;;;4.61;;
62457;SDS011;48509;52.122;5.250;2024-03-23T06:59:08;18.3;;;4.5;;
62457;SDS011;48509;52.122;5.250;2024-03-23T07:00:44;20.6;;;5.0;;
62457;SDS011;48509;52.122;5.250;2024-03-23T07:02:20;21.7;;;4.7;;
62457;SDS011;48509;52.122;5.250;2024-03-23T07:05:32;20.41;;;4.91;;
62457;SDS011;48509;52.122;5.250;2024-03-23T07:07:08;26.7;;;5.3;;
62457;SDS011;48509;52.122;5.250;2024-03-23T07:08:44;20.6;;;5.4;;
62457;SDS011;48509;52.122;5.250;2024-03-23T07:11:57;28.1;;;5.11;;
62457;SDS011;48509;52.122;5.250;2024-03-23T07:13:32;25.1;;;4.91;;
62457;SDS011;48509;52.122;5.250;2024-03-23T07:15:09;22.1;;;5.5;;
62457;SDS011;48509;52.122;5.250;2024-03-23T07:18:22;19.61;;;5.4;;
62457;SDS011;48509;52.122;5.250;2024-03-23T07:19:59;26.7;;;5.4;;
62457;SDS011;48509;52.122;5.250;2024-03-23T07:21:35;22.2;;;5.5;;
62457;SDS011;48509;52.122;5.250;2024-03-23T07:23:11;21.3;;;5.3;;
62457;SDS011;48509;52.122;5.250;2024-03-23T07:26:23;20.8;;;5.0;;
62457;SDS011;48509;52.122;5.250;2024-03-23T07:27:59;20.3;;;5.11;;
62457;SDS011;48509;52.122;5.250;2024-03-23T07:29:36;22.4;;;5.4;;
62457;SDS011;48509;52.122;5.250;2024-03-23T07:32:49;26.1;;;5.2;;
62457;SDS011;48509;52.122;5.250;2024-03-23T07:34:25;19.41;;;5.2;;
62457;SDS011;48509;52.122;5.250;2024-03-23T07:36:01;25.3;;;4.8;;
62457;SDS011;48509;52.122;5.250;2024-03-23T07:39:14;20.8;;;4.7;;
62457;SDS011;48509;52.122;5.250;2024-03-23T07:40:50;18.41;;;4.91;;
62457;SDS011;48509;52.122;5.250;2024-03-23T07:42:26;24.5;;;4.8;;
62457;SDS011;48509;52.122;5.250;2024-03-23T07:44:05;17.5;;;4.3;;
62457;SDS011;48509;52.122;5.250;2024-03-23T07:47:17;21.8;;;4.8;;
62457;SDS011;48509;52.122;5.250;2024-03-23T07:48:53;18.5;;;4.3;;
62457;SDS011;48509;52.122;5.250;2024-03-23T07:50:29;22.2;;;4.1;;
62457;SDS011;48509;52.122;5.250;2024-03-23T07:53:42;19.61;;;3.9;;
62457;SDS011;48509;52.122;5.250;2024-03-23T07:55:19;19.61;;;3.7;;
62457;SDS011;48509;52.122;5.250;2024-03-23T07:56:55;18.41;;;4.1;;
62457;SDS011;48509;52.122;5.250;2024-03-23T08:00:09;22.8;;;4.7;;
62457;SDS011;48509;52.122;5.250;2024-03-23T08:01:46;22.8;;;4.5;;
62457;SDS011;48509;52.122;5.250;2024-03-23T08:03:22;20.7;;;4.0;;
62457;SDS011;48509;52.122;5.250;2024-03-23T08:04:58;20.41;;;4.2;;
62457;SDS011;48509;52.122;5.250;2024-03-23T08:08:10;14.1;;;3.6;;
62457;SDS011;48509;52.122;5.250;2024-03-23T08:09:46;17.7;;;3.8;;
62457;SDS011;48509;52.122;5.250;2024-03-23T08:11:22;19.3;;;4.2;;
62457;SDS011;48509;52.122;5.250;2024-03-23T08:14:35;20.3;;;4.1;;
62457;SDS011;48509;52.122;5.250;2024-03-23T08:16:12;14.8;;;3.3;;
62457;SDS011;48509;52.122;5.250;2024-03-23T08:17:48;18.5;;;3.4;;
62457;SDS011;48509;52.122;5.250;2024-03-23T08:21:01;17.41;;;3.6;;
62457;SDS011;48509;52.122;5.250;2024-03-23T08:22:39;18.7;;;4.0;;
62457;SDS011;48509;52.122;5.250;2024-03-23T08:24:15;19.3;;;3.9;;
62457;SDS011;48509;52.122;5.250;2024-03-23T08:25:51;16.0;;;3.9;;
62457;SDS011;48509;52.122;5.250;2024-03-23T08:29:04;16.2;;;3.8;;
62457;SDS011;48509;52.122;5.250;2024-03-23T08:30:40;14.5;;;3.3;;
62457;SDS011;48509;52.122;5.250;2024-03-23T08:32:17;16.9;;;3.5;;
62457;SDS011;48509;52.122;5.250;2024-03-23T08:35:29;17.7;;;3.2;;
62457;SDS011;48509;52.122;5.250;2024-03-23T08:37:05;20.11;;;3.3;;
62457;SDS011;48509;52.122;5.250;2024-03-23T08:38:41;16.3;;;3.3;;
62457;SDS011;48509;52.122;5.250;2024-03-23T08:41:53;18.3;;;3.7;;
62457;SDS011;48509;52.122;5.250;2024-03-23T08:43:30;14.3;;;3.1;;
62457;SDS011;48509;52.122;5.250;2024-03-23T08:45:08;16.11;;;3.0;;
62457;SDS011;48509;52.122;5.250;2024-03-23T08:48:20;20.8;;;3.2;;
62457;SDS011;48509;52.122;5.250;2024-03-23T08:49:56;18.0;;;3.5;;
62457;SDS011;48509;52.122;5.250;2024-03-23T08:51:32;15.1;;;3.2;;
62457;SDS011;48509;52.122;5.250;2024-03-23T08:53:08;19.5;;;3.5;;
62457;SDS011;48509;52.122;5.250;2024-03-23T08:56:20;17.2;;;3.0;;
62457;SDS011;48509;52.122;5.250;2024-03-23T08:57:56;19.11;;;3.3;;
62457;SDS011;48509;52.122;5.250;2024-03-23T08:59:32;12.4;;;2.8;;
62457;SDS011;48509;52.122;5.250;2024-03-23T09:02:47;22.0;;;3.1;;
62457;SDS011;48509;52.122;5.250;2024-03-23T09:04:23;16.5;;;3.2;;
62457;SDS011;48509;52.122;5.250;2024-03-23T09:05:59;17.91;;;3.3;;
62457;SDS011;48509;52.122;5.250;2024-03-23T09:09:11;13.7;;;3.0;;
62457;SDS011;48509;52.122;5.250;2024-03-23T09:10:47;21.4;;;3.4;;
62457;SDS011;48509;52.122;5.250;2024-03-23T09:12:24;12.3;;;3.1;;
62457;SDS011;48509;52.122;5.250;2024-03-23T09:14:01;13.0;;;3.7;;
62457;SDS011;48509;52.122;5.250;2024-03-23T09:17:22;14.0;;;3.1;;
62457;SDS011;48509;52.122;5.250;2024-03-23T09:18:59;12.5;;;2.7;;
62457;SDS011;48509;52.122;5.250;2024-03-23T09:20:35;11.4;;;2.6;;
62457;SDS011;48509;52.122;5.250;2024-03-23T09:23:47;11.1;;;2.7;;
62457;SDS011;48509;52.122;5.250;2024-03-23T09:25:23;17.3;;;3.0;;
62457;SDS011;48509;52.122;5.250;2024-03-23T09:26:59;16.5;;;3.3;;
62457;SDS011;48509;52.122;5.250;2024-03-23T09:28:35;16.2;;;3.0;;
62457;SDS011;48509;52.122;5.250;2024-03-23T09:31:49;15.0;;;3.1;;
62457;SDS011;48509;52.122;5.250;2024-03-23T09:33:26;15.3;;;3.2;;
62457;SDS011;48509;52.122;5.250;2024-03-23T09:35:02;15.4;;;3.2;;
62457;SDS011;48509;52.122;5.250;2024-03-23T09:38:15;20.8;;;4.1;;
62457;SDS011;48509;52.122;5.250;2024-03-23T09:39:51;19.0;;;3.7;;
62457;SDS011;48509;52.122;5.250;2024-03-23T09:41:27;15.1;;;3.6;;
62457;SDS011;48509;52.122;5.250;2024-03-23T09:44:42;18.7;;;3.7;;
62457;SDS011;48509;52.122;5.250;2024-03-23T09:46:19;14.9;;;3.5;;
62457;SDS011;48509;52.122;5.250;2024-03-23T09:47:56;19.0;;;3.7;;
62457;SDS011;48509;52.122;5.250;2024-03-23T09:49:33;15.4;;;3.6;;
62457;SDS011;48509;52.122;5.250;2024-03-23T09:52:47;16.61;;;3.7;;
62457;SDS011;48509;52.122;5.250;2024-03-23T09:54:23;18.7;;;4.0;;
62457;SDS011;48509;52.122;5.250;2024-03-23T09:56:00;23.6;;;4.2;;
62457;SDS011;48509;52.122;5.250;2024-03-23T09:59:12;16.11;;;4.0;;
62457;SDS011;48509;52.122;5.250;2024-03-23T10:00:48;23.7;;;4.1;;
62457;SDS011;48509;52.122;5.250;2024-03-23T10:02:24;21.5;;;4.2;;
62457;SDS011;48509;52.122;5.250;2024-03-23T10:05:39;19.8;;;3.9;;
62457;SDS011;48509;52.122;5.250;2024-03-23T10:07:15;20.2;;;3.7;;
62457;SDS011;48509;52.122;5.250;2024-03-23T10:08:55;22.1;;;3.8;;
62457;SDS011;48509;52.122;5.250;2024-03-23T10:10:31;21.1;;;3.7;;
62457;SDS011;48509;52.122;5.250;2024-03-23T10:13:45;14.3;;;3.3;;
62457;SDS011;48509;52.122;5.250;2024-03-23T10:15:22;16.7;;;3.2;;
62457;SDS011;48509;52.122;5.250;2024-03-23T10:17:11;16.9;;;3.5;;
62457;SDS011;48509;52.122;5.250;2024-03-23T10:18:48;17.61;;;3.3;;
62457;SDS011;48509;52.122;5.250;2024-03-23T10:22:02;21.5;;;3.9;;
62457;SDS011;48509;52.122;5.250;2024-03-23T10:23:38;15.9;;;3.5;;
62457;SDS011;48509;52.122;5.250;2024-03-23T10:25:16;15.9;;;3.3;;
62457;SDS011;48509;52.122;5.250;2024-03-23T10:28:32;21.3;;;3.7;;
62457;SDS011;48509;52.122;5.250;2024-03-23T10:30:08;15.2;;;2.9;;
62457;SDS011;48509;52.122;5.250;2024-03-23T10:31:46;15.6;;;2.7;;
62457;SDS011;48509;52.122;5.250;2024-03-23T10:35:02;14.1;;;3.2;;
62457;SDS011;48509;52.122;5.250;2024-03-23T10:36:51;14.6;;;2.8;;
62457;SDS011;48509;52.122;5.250;2024-03-23T10:38:28;19.11;;;3.5;;
62457;SDS011;48509;52.122;5.250;2024-03-23T10:40:06;12.8;;;2.8;;
62457;SDS011;48509;52.122;5.250;2024-03-23T10:43:21;14.8;;;2.7;;
62457;SDS011;48509;52.122;5.250;2024-03-23T10:44:57;13.6;;;3.1;;
62457;SDS011;48509;52.122;5.250;2024-03-23T10:46:34;14.6;;;3.1;;
62457;SDS011;48509;52.122;5.250;2024-03-23T10:48:10;14.2;;;3.0;;
62457;SDS011;48509;52.122;5.250;2024-03-23T10:51:22;11.4;;;2.9;;
62457;SDS011;48509;52.122;5.250;2024-03-23T10:52:58;10.6;;;2.4;;
62457;SDS011;48509;52.122;5.250;2024-03-23T10:54:35;9.9;;;2.31;;
62457;SDS011;48509;52.122;5.250;2024-03-23T10:57:51;13.6;;;2.31;;
62457;SDS011;48509;52.122;5.250;2024-03-23T10:59:31;8.71;;;2.1;;
62457;SDS011;48509;52.122;5.250;2024-03-23T11:01:10;8.71;;;2.1;;
62457;SDS011;48509;52.122;5.250;2024-03-23T11:02:47;12.8;;;2.7;;
62457;SDS011;48509;52.122;5.250;2024-03-23T11:06:08;11.4;;;2.9;;
62457;SDS011;48509;52.122;5.250;2024-03-23T11:07:49;13.3;;;2.7;;
62457;SDS011;48509;52.122;5.250;2024-03-23T11:09:45;14.4;;;2.8;;
62457;SDS011;48509;52.122;5.250;2024-03-23T11:11:22;13.8;;;3.1;;
62457;SDS011;48509;52.122;5.250;2024-03-23T11:14:59;11.5;;;2.7;;
62457;SDS011;48509;52.122;5.250;2024-03-23T11:16:38;16.4;;;2.9;;
62457;SDS011;48509;52.122;5.250;2024-03-23T11:18:20;10.4;;;2.4;;
62457;SDS011;48509;52.122;5.250;2024-03-23T11:19:57;12.5;;;2.7;;
62457;SDS011;48509;52.122;5.250;2024-03-23T11:21:54;16.8;;;2.7;;
62457;SDS011;48509;52.122;5.250;2024-03-23T11:25:18;16.5;;;3.2;;
62457;SDS011;48509;52.122;5.250;2024-03-23T11:26:55;14.0;;;3.2;;
62457;SDS011;48509;52.122;5.250;2024-03-23T11:28:32;14.2;;;3.1;;
62457;SDS011;48509;52.122;5.250;2024-03-23T11:30:10;17.91;;;3.2;;
62457;SDS011;48509;52.122;5.250;2024-03-23T11:33:27;12.9;;;3.0;;
62457;SDS011;48509;52.122;5.250;2024-03-23T11:35:03;16.4;;;3.1;;
62457;SDS011;48509;52.122;5.250;2024-03-23T11:36:40;15.5;;;3.3;;
62457;SDS011;48509;52.122;5.250;2024-03-23T11:39:53;13.8;;;3.2;;
62457;SDS011;48509;52.122;5.250;2024-03-23T11:41:29;13.6;;;3.4;;
62457;SDS011;48509;52.122;5.250;2024-03-23T11:43:06;12.5;;;2.9;;
62457;SDS011;48509;52.122;5.250;2024-03-23T11:44:44;18.11;;;3.4;;
62457;SDS011;48509;52.122;5.250;2024-03-23T11:48:01;16.5;;;3.2;;
62457;SDS011;48509;52.122;5.250;2024-03-23T11:49:41;16.3;;;3.1;;
62457;SDS011;48509;52.122;5.250;2024-03-23T11:51:17;14.6;;;3.0;;
62457;SDS011;48509;52.122;5.250;2024-03-23T11:54:42;12.7;;;2.8;;
62457;SDS011;48509;52.122;5.250;2024-03-23T11:56:18;13.6;;;3.1;;
62457;SDS011;48509;52.122;5.250;2024-03-23T11:57:54;15.4;;;3.0;;
62457;SDS011;48509;52.122;5.250;2024-03-23T11:59:31;12.5;;;3.2;;
62457;SDS011;48509;52.122;5.250;2024-03-23T12:02:46;16.9;;;3.5;;
62457;SDS011;48509;52.122;5.250;2024-03-23T12:04:24;14.9;;;3.6;;
62457;SDS011;48509;52.122;5.250;2024-03-23T12:06:02;15.7;;;3.5;;
62457;SDS011;48509;52.122;5.250;2024-03-23T12:07:40;18.61;;;3.4;;
62457;SDS011;48509;52.122;5.250;2024-03-23T12:10:53;18.3;;;3.6;;
62457;SDS011;48509;52.122;5.250;2024-03-23T12:12:40;13.0;;;3.4;;
62457;SDS011;48509;52.122;5.250;2024-03-23T12:14:16;13.4;;;3.3;;
62457;SDS011;48509;52.122;5.250;2024-03-23T12:17:29;14.4;;;3.2;;
62457;SDS011;48509;52.122;5.250;2024-03-23T12:19:05;14.8;;;3.2;;
62457;SDS011;48509;52.122;5.250;2024-03-23T12:20:41;17.8;;;3.5;;
62457;SDS011;48509;52.122;5.250;2024-03-23T12:22:20;13.6;;;3.0;;
62457;SDS011;48509;52.122;5.250;2024-03-23T12:25:32;13.5;;;2.8;;
62457;SDS011;48509;52.122;5.250;2024-03-23T12:27:08;14.9;;;3.0;;
62457;SDS011;48509;52.122;5.250;2024-03-23T12:28:44;13.6;;;3.4;;
62457;SDS011;48509;52.122;5.250;2024-03-23T12:31:58;14.0;;;3.0;;
62457;SDS011;48509;52.122;5.250;2024-03-23T12:33:36;15.4;;;3.5;;
62457;SDS011;48509;52.122;5.250;2024-03-23T12:35:12;12.7;;;2.9;;
62457;SDS011;48509;52.122;5.250;2024-03-23T12:38:24;12.9;;;2.7;;
62457;SDS011;48509;52.122;5.250;2024-03-23T12:40:00;15.0;;;2.8;;
62457;SDS011;48509;52.122;5.250;2024-03-23T12:41:36;13.4;;;3.0;;
62457;SDS011;48509;52.122;5.250;2024-03-23T12:43:12;13.6;;;3.0;;
62457;SDS011;48509;52.122;5.250;2024-03-23T12:46:24;12.7;;;2.7;;
62457;SDS011;48509;52.122;5.250;2024-03-23T12:48:01;11.5;;;2.8;;
62457;SDS011;48509;52.122;5.250;2024-03-23T12:49:37;13.8;;;3.0;;
62457;SDS011;48509;52.122;5.250;2024-03-23T12:52:49;13.4;;;3.0;;
62457;SDS011;48509;52.122;5.250;2024-03-23T12:54:25;13.4;;;2.9;;
62457;SDS011;48509;52.122;5.250;2024-03-23T12:56:01;13.2;;;3.0;;
62457;SDS011;48509;52.122;5.250;2024-03-23T12:59:13;12.8;;;3.1;;
62457;SDS011;48509;52.122;5.250;2024-03-23T13:00:50;13.2;;;2.8;;
62457;SDS011;48509;52.122;5.250;2024-03-23T13:02:26;13.5;;;3.2;;
62457;SDS011;48509;52.122;5.250;2024-03-23T13:05:39;13.5;;;2.8;;
62457;SDS011;48509;52.122;5.250;2024-03-23T13:07:15;14.1;;;3.0;;
62457;SDS011;48509;52.122;5.250;2024-03-23T13:08:51;12.8;;;2.4;;
62457;SDS011;48509;52.122;5.250;2024-03-23T13:10:27;8.9;;;2.5;;
62457;SDS011;48509;52.122;5.250;2024-03-23T13:15:16;11.5;;;2.7;;
62457;SDS011;48509;52.122;5.250;2024-03-23T13:16:52;13.1;;;2.9;;
62457;SDS011;48509;52.122;5.250;2024-03-23T13:20:05;6.7;;;1.7;;
62457;SDS011;48509;52.122;5.250;2024-03-23T13:21:42;4.41;;;1.2;;
62457;SDS011;48509;52.122;5.250;2024-03-23T13:23:18;5.6;;;1.0;;
62457;SDS011;48509;52.122;5.250;2024-03-23T13:26:30;3.5;;;0.8;;
62457;SDS011;48509;52.122;5.250;2024-03-23T13:28:06;3.0;;;0.9;;
62457;SDS011;48509;52.122;5.250;2024-03-23T13:29:42;2.6;;;0.9;;
62457;SDS011;48509;52.122;5.250;2024-03-23T13:31:18;2.1;;;0.9;;
62457;SDS011;48509;52.122;5.250;2024-03-23T13:34:30;6.1;;;1.2;;
62457;SDS011;48509;52.122;5.250;2024-03-23T13:36:07;4.91;;;1.2;;
62457;SDS011;48509;52.122;5.250;2024-03-23T13:37:44;6.6;;;1.7;;
62457;SDS011;48509;52.122;5.250;2024-03-23T13:40:56;7.9;;;2.1;;